Stations météo

réclame
Mon MeteoGroup
Fehmarnbelt/Grosstonne, Allemagne (10043): Température de l'air & dewpoint: 13.06.2019 17:00:00 - 19.06.2019 17:00:00 (CEST)Fehmarnbelt/Grosstonne, Allemagne (10043): water temperature: 13.06.2019 17:00:00 - 19.06.2019 17:00:00 (CEST)Fehmarnbelt/Grosstonne, Allemagne (10043): Vitesse du vent: 13.06.2019 17:00:00 - 19.06.2019 17:00:00 (CEST)Fehmarnbelt/Grosstonne, Allemagne (10043): Direction du vent: 13.06.2019 17:00:00 - 19.06.2019 17:00:00 (CEST)Fehmarnbelt/Grosstonne, Allemagne (10043): reduced air pressure: 13.06.2019 17:00:00 - 19.06.2019 17:00:00 (CEST)
Date & Time tt [°C] td [°C] tw [°C] ff [km/h] ff [knt] dd ppp [hPa]
19.06.2019 17:00:00 21,2 15,3 16,5 22 12 E 1007,2
19.06.2019 16:00:00 21,2 15,5 16,7 27 14 ESE 1007,3
19.06.2019 15:00:00 20,5 16,4 16,6 21 11 ESE 1008,3
19.06.2019 14:00:00 19,5 16,7 16,5 19 10 E 1008,7
19.06.2019 13:00:00 19,9 16,5 16,5 20 11 E 1009,0
19.06.2019 12:00:00 20,0 16,0 16,3 19 11 E 1009,5
19.06.2019 11:00:00 19,4 15,2 16,0 16 9 ENE 1009,9
19.06.2019 10:00:00 18,7 15,0 15,8 10 5 ENE 1010,0
19.06.2019 09:00:00 18,0 15,0 15,6 22 12 SE 1010,1
19.06.2019 08:00:00 17,7 14,9 15,6 23 12 SE 1010,2
19.06.2019 07:00:00 17,9 15,0 15,4 25 14 SE 1010,3
19.06.2019 06:00:00 17,7 15,2 15,6 21 11 ESE 1010,6
19.06.2019 05:00:00 17,2 15,7 15,8 16 8 E 1011,0
19.06.2019 04:00:00 17,9 16,2 15,7 19 10 E 1011,4
19.06.2019 03:00:00 17,5 15,2 15,5 24 13 E 1011,8
19.06.2019 02:00:00 17,7 15,2 15,6 31 17 E 1011,9
19.06.2019 01:00:00 18,2 15,0 15,6 26 14 NE 1012,8
19.06.2019 00:00:00 19,0 15,0 15,6 24 13 NNE 1013,3
18.06.2019 23:00:00 18,2 15,0 15,8 9 5 NNW 1014,6
18.06.2019 22:00:00 18,7 14,7 15,8 29 16 NNW 1013,3
18.06.2019 21:00:00 18,2 14,7 15,9 18 10 N 1013,4
18.06.2019 20:00:00 20,5 14,5 15,9 18 10 WNW 1013,8
18.06.2019 19:00:00 18,7 15,9 15,9 17 9 E 1013,3
18.06.2019 18:00:00 18,5 15,9 16,3 19 10 E 1013,5
18.06.2019 17:00:00 19,5 15,5 16,1 21 12 ESE 1014,1
18.06.2019 16:00:00 19,2 15,7 16,1 22 12 ESE 1014,6
18.06.2019 15:00:00 18,7 15,7 15,8 20 11 E 1015,5
18.06.2019 14:00:00 18,4 15,5 15,7 19 11 ESE 1016,1
18.06.2019 13:00:00 18,2 15,4 15,5 19 10 ESE 1016,5
18.06.2019 12:00:00 17,5 15,0 15,3 20 11 ESE 1016,8
18.06.2019 11:00:00 17,5 14,5 14,8 24 13 SE 1017,0
18.06.2019 10:00:00 16,7 14,2 14,7 23 12 ESE 1017,2
18.06.2019 09:00:00 16,7 14,0 14,8 26 14 SE 1017,4
18.06.2019 08:00:00 16,2 13,9 15,3 23 13 SE 1017,7
18.06.2019 07:00:00 16,5 13,5 15,4 27 15 SE 1018,0
18.06.2019 06:00:00 16,4 13,7 15,5 26 14 SE 1018,2
18.06.2019 05:00:00 16,2 14,0 15,3 24 13 SE 1018,5
18.06.2019 04:00:00 16,0 14,2 15,7 22 12 ESE 1019,0
18.06.2019 03:00:00 16,5 14,2 15,7 25 13 SE 1019,4
18.06.2019 02:00:00 16,5 14,5 15,0 24 13 SE 1019,5
18.06.2019 01:00:00 17,0 14,2 15,2 27 15 ESE 1019,7
18.06.2019 00:00:00 17,2 14,4 15,2 28 15 ESE 1019,8
17.06.2019 23:00:00 17,5 14,4 15,5 21 11 ESE 1020,0
17.06.2019 22:00:00 17,4 14,5 15,9 20 11 ESE 1020,1
17.06.2019 21:00:00 17,9 14,2 16,7 18 10 ESE 1020,2
17.06.2019 20:00:00 17,9 13,7 16,9 18 10 ESE 1020,5
17.06.2019 19:00:00 17,5 14,5 17,0 14 7 ESE 1020,8
17.06.2019 18:00:00 18,0 13,7 17,1 18 10 E 1021,1
17.06.2019 17:00:00 17,7 14,0 16,7 17 9 E 1021,7
17.06.2019 16:00:00 18,0 14,4 16,1 18 10 ESE 1021,9
17.06.2019 15:00:00 18,2 14,0 15,8 17 9 ESE 1022,2
17.06.2019 14:00:00 18,7 13,7 15,9 16 8 SE 1022,2
17.06.2019 13:00:00 25,2 13,5 15,7 3 1 WSW 1022,3
17.06.2019 12:00:00 21,2 14,2 15,5 12 7 SE 1022,4
17.06.2019 11:00:00 20,5 14,7 15,1 9 5 SSE 1022,5
17.06.2019 10:00:00 18,0 14,7 14,9 13 7 SSE 1022,5
17.06.2019 09:00:00 18,4 15,0 14,9 5 3 SE 1022,1
17.06.2019 08:00:00 17,0 14,7 14,7 13 7 SW 1022,0
17.06.2019 07:00:00 17,4 15,2 14,8 12 6 SW 1021,6
17.06.2019 06:00:00 16,5 14,7 14,8 10 6 WSW 1021,6
17.06.2019 05:00:00 15,2 14,5 14,9 12 6 W 1021,4
17.06.2019 04:00:00 15,5 14,7 14,9 15 8 W 1021,4
17.06.2019 03:00:00 15,5 14,4 15,1 16 9 W 1021,0
17.06.2019 02:00:00 16,0 15,0 15,2 24 13 W 1020,8
17.06.2019 01:00:00 16,0 14,0 15,6 11 6 S 1020,7
17.06.2019 00:00:00 16,2 14,0 15,8 9 5 S 1020,9
16.06.2019 23:00:00 16,9 12,7 15,2 3 1 SE 1020,7
16.06.2019 22:00:00 17,2 12,0 15,2 5 3 NE 1020,4
16.06.2019 21:00:00 17,0 12,7 15,3 12 7 ESE 1020,2
16.06.2019 20:00:00 17,2 13,5 15,4 19 10 SE 1020,2
16.06.2019 19:00:00 17,5 13,7 15,8 9 5 SE 1020,2
16.06.2019 18:00:00 18,7 14,2 15,7 12 6 SE 1020,2
16.06.2019 17:00:00 20,7 13,5 15,6 1 1 NNE 1020,3
16.06.2019 16:00:00 19,9 12,5 15,3 5 3 W 1020,7
16.06.2019 15:00:00 20,0 13,0 15,3 8 4 WSW 1020,5
16.06.2019 14:00:00 20,2 13,5 15,1 8 4 W 1020,1
16.06.2019 13:00:00 18,0 13,2 14,9 9 5 W 1019,7
16.06.2019 12:00:00 16,5 12,9 14,6 14 7 W 1019,6
16.06.2019 11:00:00 15,7 12,5 14,4 25 14 W 1018,7
16.06.2019 10:00:00 15,2 12,7 14,3 24 13 W 1018,3
16.06.2019 09:00:00 15,2 12,2 14,2 26 14 W 1018,1
16.06.2019 08:00:00 14,9 12,5 14,2 24 13 W 1017,8
16.06.2019 07:00:00 14,7 13,0 14,2 24 13 W 1017,2
16.06.2019 06:00:00 14,5 13,2 14,2 27 15 W 1016,6
16.06.2019 05:00:00 14,5 12,7 14,2 35 19 W 1015,8
16.06.2019 04:00:00 14,7 13,2 14,2 32 17 W 1015,5
16.06.2019 03:00:00 14,9 13,2 14,2 35 19 W 1015,2
16.06.2019 02:00:00 15,0 13,5 14,3 39 21 W 1014,7
16.06.2019 01:00:00 15,0 14,0 14,4 39 21 W 1014,3
16.06.2019 00:00:00 16,0 14,7 14,4 31 17 W 1014,0
15.06.2019 23:00:00 16,2 15,0 14,4 19 10 W 1013,5
15.06.2019 22:00:00 16,2 15,0 14,4 14 7 W 1012,5
15.06.2019 21:00:00 17,5 14,5 14,3 0 0 W 1011,6
15.06.2019 20:00:00 15,7 13,7 14,2 10 5 SSE 1011,2
15.06.2019 19:00:00 16,0 13,2 14,0 26 14 SSE 1011,8
15.06.2019 18:00:00 17,4 12,2 14,2 41 22 E 1010,8
15.06.2019 17:00:00 16,9 13,0 13,9 42 23 E 1009,7
15.06.2019 16:00:00 16,9 13,0 14,0 39 21 E 1009,4
15.06.2019 15:00:00 17,5 13,2 14,4 44 24 E 1009,7
15.06.2019 14:00:00 17,2 12,5 14,2 40 21 E 1010,2
15.06.2019 13:00:00 16,9 13,4 14,4 40 22 ENE 1010,0
15.06.2019 12:00:00 16,7 16,0 14,6 45 25 E 1010,7
15.06.2019 11:00:00 16,2 16,0 14,7 16 9 E 1013,0
15.06.2019 10:00:00 16,2 15,5 14,7 19 11 E 1012,4
15.06.2019 09:00:00 16,7 15,5 14,6 23 12 E 1012,3
15.06.2019 08:00:00 17,4 15,2 14,8 22 12 E 1011,9
15.06.2019 07:00:00 18,5 15,0 14,7 31 17 E 1011,9
15.06.2019 06:00:00 17,0 15,2 14,9 25 13 E 1012,7
15.06.2019 05:00:00 17,0 15,5 15,0 27 15 E 1012,8
15.06.2019 04:00:00 16,5 15,2 15,2 26 14 E 1013,6
15.06.2019 03:00:00 16,5 14,9 15,2 24 13 E 1014,5
15.06.2019 02:00:00 16,0 14,5 15,4 27 15 ENE 1014,9
15.06.2019 01:00:00 18,0 14,5 15,4 34 18 E 1015,1
15.06.2019 00:00:00 17,9 15,0 15,5 34 18 E 1015,5
14.06.2019 23:00:00 18,5 15,7 15,4 26 14 E 1016,1
14.06.2019 22:00:00 17,7 15,5 15,4 27 15 E 1015,7
14.06.2019 21:00:00 18,4 15,0 15,4 14 8 E 1015,7
14.06.2019 20:00:00 17,9 14,5 15,4 9 5 NNE 1016,5
14.06.2019 19:00:00 18,2 14,2 15,3 16 9 SW 1017,0
14.06.2019 18:00:00 17,7 15,0 15,3 27 15 E 1015,5
14.06.2019 17:00:00 17,9 14,0 14,9 22 12 E 1016,1
14.06.2019 16:00:00 18,7 13,7 15,1 31 17 E 1016,5
14.06.2019 15:00:00 18,2 14,0 15,1 27 14 E 1017,2
14.06.2019 14:00:00 17,5 14,2 15,3 23 12 E 1017,5
14.06.2019 13:00:00 16,9 14,5 15,1 21 12 E 1017,8
14.06.2019 12:00:00 16,5 14,5 15,0 19 11 E 1018,2
14.06.2019 11:00:00 16,2 14,2 14,8 28 15 ESE 1018,3
14.06.2019 10:00:00 18,5 14,7 14,7 11 6 SSE 1018,1
14.06.2019 09:00:00 18,5 14,7 14,9 11 6 S 1017,8
14.06.2019 08:00:00 16,5 14,5 15,1 16 8 SSE 1017,1
14.06.2019 07:00:00 16,2 14,2 14,9 13 7 S 1016,8
14.06.2019 06:00:00 15,4 14,2 14,7 20 11 S 1016,4
14.06.2019 05:00:00 15,2 14,2 14,3 17 9 S 1016,3
14.06.2019 04:00:00 14,9 13,7 13,9 22 12 SSE 1015,8
14.06.2019 03:00:00 15,5 13,5 14,0 22 12 S 1015,6
14.06.2019 02:00:00 15,5 13,5 14,3 35 19 SE 1015,5
14.06.2019 01:00:00 16,0 13,9 14,3 26 14 ESE 1015,1
14.06.2019 00:00:00 16,0 13,7 14,7 19 10 ESE 1014,7
13.06.2019 23:00:00 15,7 13,0 15,3 17 9 ENE 1013,9
13.06.2019 22:00:00 15,9 12,5 15,0 7 4 NNE 1014,4
13.06.2019 21:00:00 17,2 12,7 15,1 19 11 ENE 1013,4
13.06.2019 20:00:00 17,9 14,0 15,2 13 7 E 1013,4
13.06.2019 19:00:00 17,7 12,2 15,2 12 7 E 1013,5
13.06.2019 18:00:00 17,0 13,2 15,1 21 11 E 1013,3
13.06.2019 17:00:00 19,5 13,4 15,0 23 13 SSE 1013,5

tt = Température de l'air
td = dewpoint
tw = water temperature
ff = Vitesse du vent
dd = Direction du vent
ppp = reduced air pressure

stations d'obs. à proximité